Time;durP1;ratioP1;P1;durP2;ratioP2;P2;SDS_P1;SDS_P2;PMS_P1;PMS_P2;Temp;Humidity;BMP_temperature;BMP_pressure;BME280_temperature;BME280_humidity;BME280_pressure;Samples;Min_cycle;Max_cycle;Signal;HPM_P1;HPM_P2
2022/03/17 00:02:07;;;;;;;33.03;20.85;;;10.80;99.90;;;;;;5006132;28;20504;-59
2022/03/17 00:04:33;;;;;;;35.20;21.33;;;10.80;99.90;;;;;;5021451;28;20044;-59
2022/03/17 00:06:59;;;;;;;32.70;20.35;;;10.80;99.90;;;;;;5008281;28;20100;-59
2022/03/17 00:09:25;;;;;;;34.20;21.13;;;10.80;99.90;;;;;;5008554;28;20069;-59
2022/03/17 00:11:51;;;;;;;32.80;21.00;;;10.80;99.90;;;;;;5010759;28;20037;-59
2022/03/17 00:14:16;;;;;;;31.90;19.88;;;10.70;99.90;;;;;;5008231;28;20041;-59
2022/03/17 00:16:42;;;;;;;34.38;20.02;;;10.80;99.90;;;;;;4990483;28;20108;-59
2022/03/17 00:19:08;;;;;;;35.85;21.65;;;10.80;99.90;;;;;;5005921;28;20042;-59
2022/03/17 00:21:38;;;;;;;33.25;19.67;;;10.80;99.90;;;;;;5010297;28;20084;-59
2022/03/17 00:24:09;;;;;;;33.42;21.17;;;10.80;99.90;;;;;;5000234;28;20025;-59
2022/03/17 00:26:35;;;;;;;37.40;21.27;;;10.80;99.90;;;;;;5008450;28;20113;-59
2022/03/17 00:29:03;;;;;;;34.30;21.30;;;10.70;99.90;;;;;;5012798;28;20038;-59
2022/03/17 00:31:29;;;;;;;35.25;20.85;;;10.70;99.90;;;;;;5007973;28;20099;-59
2022/03/17 00:33:55;;;;;;;35.47;21.08;;;10.70;99.90;;;;;;5007671;28;20038;-59
2022/03/17 00:36:21;;;;;;;34.67;20.50;;;10.70;99.90;;;;;;5004319;28;20040;-59
2022/03/17 00:38:48;;;;;;;36.20;21.15;;;10.70;99.90;;;;;;4992499;28;20688;-59
2022/03/17 00:41:13;;;;;;;36.35;20.70;;;10.70;99.90;;;;;;5008329;28;20113;-59
2022/03/17 00:43:39;;;;;;;35.40;21.38;;;10.70;99.90;;;;;;5008429;28;20511;-59
2022/03/17 00:46:04;;;;;;;37.97;20.58;;;10.70;99.90;;;;;;4998865;28;20040;-59
2022/03/17 00:48:30;;;;;;;35.40;21.60;;;10.70;99.90;;;;;;5007843;28;20033;-59
2022/03/17 00:50:55;;;;;;;38.28;21.70;;;10.70;99.90;;;;;;5011805;28;20103;-59
2022/03/17 00:53:21;;;;;;;37.42;21.45;;;10.70;99.90;;;;;;5002875;28;20505;-61
2022/03/17 00:55:47;;;;;;;36.22;22.20;;;10.70;99.90;;;;;;5004176;28;20564;-61
2022/03/17 00:58:12;;;;;;;39.05;21.67;;;10.60;99.90;;;;;;5011851;28;20508;-62
2022/03/17 01:00:38;;;;;;;35.17;21.20;;;10.60;99.90;;;;;;5010234;28;20096;-61
2022/03/17 01:03:05;;;;;;;34.92;19.35;;;10.60;99.90;;;;;;5007901;28;20135;-61
2022/03/17 01:05:30;;;;;;;35.60;21.23;;;10.60;99.90;;;;;;5011339;28;20049;-61
2022/03/17 01:07:56;;;;;;;37.30;21.75;;;10.60;99.90;;;;;;5011967;28;20045;-62
2022/03/17 01:10:22;;;;;;;36.70;22.40;;;10.60;99.90;;;;;;5017552;28;20065;-61
2022/03/17 01:12:50;;;;;;;39.22;20.85;;;10.60;99.90;;;;;;5006979;28;20038;-61
2022/03/17 01:15:17;;;;;;;38.10;23.38;;;10.60;99.90;;;;;;5011744;28;20064;-61
2022/03/17 01:17:43;;;;;;;34.95;20.65;;;10.60;99.90;;;;;;5011281;28;20131;-61
2022/03/17 01:20:09;;;;;;;36.10;22.42;;;10.60;99.90;;;;;;5017508;28;20077;-62
2022/03/17 01:22:35;;;;;;;34.58;21.05;;;10.60;99.90;;;;;;5011366;28;20037;-61
2022/03/17 01:25:02;;;;;;;36.80;21.00;;;10.70;99.90;;;;;;5011335;28;20061;-61
2022/03/17 01:27:29;;;;;;;38.13;21.67;;;10.60;99.90;;;;;;4994607;28;20121;-61
2022/03/17 01:29:54;;;;;;;34.05;20.77;;;10.60;99.90;;;;;;5010866;28;20437;-61
2022/03/17 01:32:21;;;;;;;39.40;22.25;;;10.60;99.90;;;;;;5010774;28;20113;-61
2022/03/17 01:34:48;;;;;;;37.80;22.02;;;10.60;99.90;;;;;;5007293;28;20127;-61
2022/03/17 01:37:14;;;;;;;35.72;21.70;;;10.60;99.90;;;;;;4993688;28;20504;-61
2022/03/17 01:39:39;;;;;;;37.42;22.25;;;10.60;99.90;;;;;;5011076;28;20045;-61
2022/03/17 01:42:07;;;;;;;37.95;21.85;;;10.60;99.90;;;;;;5010019;28;20053;-61
2022/03/17 01:44:34;;;;;;;36.25;22.23;;;10.60;99.90;;;;;;4999373;28;20109;-61
2022/03/17 01:49:44;;;;;;;38.00;21.85;;;10.50;99.90;;;;;;5010101;28;20037;-61
2022/03/17 01:52:10;;;;;;;36.67;22.27;;;10.50;99.90;;;;;;5008552;28;20480;-61
2022/03/17 01:54:36;;;;;;;36.53;21.63;;;10.50;99.90;;;;;;4993101;28;20440;-61
2022/03/17 01:57:04;;;;;;;36.55;21.73;;;10.50;99.90;;;;;;5010634;28;20045;-61
2022/03/17 01:59:31;;;;;;;35.58;20.63;;;10.50;99.90;;;;;;5006031;28;20057;-61
2022/03/17 02:01:57;;;;;;;38.97;22.38;;;10.50;99.90;;;;;;5010779;28;20041;-61
2022/03/17 02:04:24;;;;;;;36.30;22.23;;;10.50;99.90;;;;;;5007016;28;20030;-61
2022/03/17 02:06:50;;;;;;;38.13;22.23;;;10.40;99.90;;;;;;4990245;28;20374;-61
2022/03/17 02:09:16;;;;;;;38.90;20.77;;;10.40;99.90;;;;;;5012906;28;20026;-61
2022/03/17 02:14:28;;;;;;;37.92;22.67;;;10.30;99.90;;;;;;5005598;28;20512;-61
2022/03/17 02:16:53;;;;;;;37.45;21.52;;;10.30;99.90;;;;;;4992584;28;20037;-61
2022/03/17 02:19:22;;;;;;;40.67;23.55;;;10.20;99.90;;;;;;5010411;28;20045;-61
2022/03/17 02:21:49;;;;;;;38.40;23.08;;;10.20;99.90;;;;;;5015515;28;20168;-61
2022/03/17 02:27:02;;;;;;;38.97;22.45;;;10.20;99.90;;;;;;5010602;28;20041;-61
2022/03/17 02:29:29;;;;;;;37.60;22.75;;;10.20;99.90;;;;;;5010452;28;20088;-61
2022/03/17 02:31:55;;;;;;;41.35;23.92;;;10.20;99.90;;;;;;5010360;28;20132;-61
2022/03/17 02:34:20;;;;;;;37.92;24.08;;;10.20;99.90;;;;;;5009841;28;20677;-61
2022/03/17 02:36:48;;;;;;;39.47;22.92;;;10.20;99.90;;;;;;5012369;28;20068;-62
2022/03/17 02:39:15;;;;;;;39.92;23.98;;;10.20;99.90;;;;;;5009812;28;20077;-61
2022/03/17 02:41:41;;;;;;;35.75;21.10;;;10.30;99.90;;;;;;5006574;28;20037;-61
2022/03/17 02:49:18;;;;;;;38.72;23.17;;;10.30;99.90;;;;;;6016383;22;20059;-59
2022/03/17 03:04:41;;;;;;;37.33;23.20;;;10.50;99.90;;;;;;6245656;22;20019;-59
2022/03/17 03:07:07;;;;;;;43.88;23.30;;;10.50;99.90;;;;;;5031240;28;20060;-59
2022/03/17 03:14:36;;;;;;;40.63;25.33;;;10.50;99.90;;;;;;5009880;28;20099;-62
2022/03/17 03:27:27;;;;;;;37.10;24.45;;;10.60;99.90;;;;;;6224689;22;20012;-59
2022/03/17 03:29:54;;;;;;;38.97;23.67;;;10.60;99.90;;;;;;5030026;28;20067;-60
2022/03/17 03:32:20;;;;;;;35.95;23.52;;;10.60;99.90;;;;;;5025685;28;20037;-59
2022/03/17 03:42:32;;;;;;;41.05;25.23;;;10.70;99.90;;;;;;6213020;22;20007;-60
2022/03/17 03:44:57;;;;;;;40.15;23.83;;;10.60;99.90;;;;;;5030244;28;20099;-60
2022/03/17 03:47:23;;;;;;;39.45;24.75;;;10.70;99.90;;;;;;5021228;28;20037;-60
2022/03/17 03:49:51;;;;;;;38.97;23.67;;;10.70;99.90;;;;;;5026745;28;20045;-60
2022/03/17 03:52:17;;;;;;;38.97;25.42;;;10.70;99.90;;;;;;5010691;28;20045;-60
2022/03/17 04:02:29;;;;;;;39.47;23.50;;;10.80;99.90;;;;;;5598271;22;20064;-61
2022/03/17 04:04:54;;;;;;;40.47;24.42;;;10.80;99.90;;;;;;5042932;28;20033;-61
2022/03/17 04:17:41;;;;;;;39.78;24.92;;;10.90;99.90;;;;;;5482881;22;20045;-62
2022/03/17 04:20:09;;;;;;;40.20;25.30;;;10.90;99.90;;;;;;5013551;28;20040;-62
2022/03/17 04:22:35;;;;;;;38.13;23.65;;;10.90;99.90;;;;;;4999618;28;20037;-62
2022/03/17 04:25:00;;;;;;;43.55;27.83;;;10.90;99.90;;;;;;5043959;28;20398;-62
2022/03/17 04:27:26;;;;;;;42.40;25.63;;;11.00;99.90;;;;;;5013149;28;20071;-62
2022/03/17 04:42:49;;;;;;;48.33;30.75;;;11.00;99.90;;;;;;6127316;22;20117;-62
2022/03/17 04:45:14;;;;;;;55.90;33.40;;;10.90;99.90;;;;;;5038541;28;20112;-62
2022/03/17 04:47:40;;;;;;;52.92;31.92;;;10.70;99.90;;;;;;5045530;28;20094;-61
2022/03/17 04:50:06;;;;;;;61.58;37.83;;;10.60;99.90;;;;;;5013448;28;20040;-62
2022/03/17 04:55:30;;;;;;;69.00;35.13;;;10.40;99.90;;;;;;5002165;22;20140;-60
2022/03/17 04:57:56;;;;;;;74.88;40.25;;;10.30;99.90;;;;;;5027954;28;20657;-60
2022/03/17 05:00:21;;;;;;;80.80;40.17;;;10.20;99.90;;;;;;5027672;28;20469;-59
2022/03/17 05:02:47;;;;;;;70.13;39.03;;;10.10;99.90;;;;;;5027136;28;20043;-60
2022/03/17 05:05:12;;;;;;;83.55;43.95;;;10.10;99.90;;;;;;5025135;28;20060;-60
2022/03/17 05:07:38;;;;;;;81.47;41.97;;;10.20;99.90;;;;;;5034419;28;20415;-60
2022/03/17 05:10:04;;;;;;;81.30;37.92;;;10.10;99.90;;;;;;5024037;28;20107;-60
2022/03/17 05:12:30;;;;;;;86.13;41.97;;;10.10;99.90;;;;;;5022769;28;20109;-59
2022/03/17 05:14:55;;;;;;;87.82;38.30;;;10.10;99.90;;;;;;5027004;28;20464;-60
2022/03/17 05:17:21;;;;;;;88.00;40.75;;;10.10;99.90;;;;;;5024049;28;20497;-60
2022/03/17 05:19:46;;;;;;;80.47;37.40;;;10.10;99.90;;;;;;5025516;28;20104;-60
2022/03/17 05:22:12;;;;;;;76.68;38.72;;;10.10;99.90;;;;;;5027204;28;20392;-60
2022/03/17 05:24:37;;;;;;;34.28;21.17;;;10.00;99.90;;;;;;5027315;28;20046;-60
2022/03/17 05:27:03;;;;;;;29.42;16.55;;;10.00;99.90;;;;;;5030975;28;20044;-59
2022/03/17 05:29:29;;;;;;;13.00;8.18;;;9.90;99.90;;;;;;5018179;28;20034;-59
2022/03/17 05:31:55;;;;;;;11.40;8.02;;;9.60;99.90;;;;;;5028686;28;20484;-58
2022/03/17 05:34:20;;;;;;;16.25;9.35;;;9.40;99.90;;;;;;5031004;28;20041;-57
2022/03/17 05:36:46;;;;;;;20.40;13.50;;;9.20;99.90;;;;;;5030802;28;20045;-58
2022/03/17 05:39:11;;;;;;;19.75;13.50;;;9.10;99.90;;;;;;5035542;28;20046;-59
2022/03/17 05:41:37;;;;;;;17.15;12.98;;;9.00;99.90;;;;;;5027371;28;20091;-58
2022/03/17 05:44:02;;;;;;;17.75;13.02;;;8.90;99.90;;;;;;5024428;28;20052;-59
2022/03/17 05:46:28;;;;;;;16.60;12.90;;;8.80;99.90;;;;;;5023702;28;20045;-58
2022/03/17 05:48:55;;;;;;;20.08;13.88;;;8.80;99.90;;;;;;5028836;28;20049;-59
2022/03/17 05:51:21;;;;;;;19.02;13.95;;;8.70;99.90;;;;;;5028205;28;20045;-60
2022/03/17 05:53:46;;;;;;;18.30;13.23;;;8.70;99.90;;;;;;5025862;28;20038;-60
2022/03/17 05:56:12;;;;;;;19.88;13.15;;;8.60;99.90;;;;;;5016435;28;20025;-60
2022/03/17 05:58:37;;;;;;;18.38;13.95;;;8.70;99.90;;;;;;5027789;28;20041;-60
2022/03/17 06:01:03;;;;;;;18.10;12.27;;;8.60;99.90;;;;;;5023880;28;20041;-60
2022/03/17 06:03:28;;;;;;;17.20;12.27;;;8.60;99.90;;;;;;5034436;28;20047;-60
2022/03/17 06:05:54;;;;;;;18.17;13.65;;;8.60;99.90;;;;;;5028324;28;20064;-60
2022/03/17 06:08:19;;;;;;;20.40;12.43;;;8.60;99.90;;;;;;5027903;28;20088;-60
2022/03/17 06:10:45;;;;;;;19.30;13.13;;;8.60;99.90;;;;;;5018085;28;20048;-61
2022/03/17 06:13:11;;;;;;;20.35;12.63;;;8.60;99.90;;;;;;5020769;28;20044;-60
2022/03/17 06:15:36;;;;;;;20.55;12.60;;;8.50;99.90;;;;;;5027702;28;20063;-60
2022/03/17 06:18:04;;;;;;;21.10;14.73;;;8.60;99.90;;;;;;5024174;28;20088;-60
2022/03/17 06:20:32;;;;;;;23.65;15.05;;;8.60;99.90;;;;;;5020716;28;20041;-60
2022/03/17 06:23:00;;;;;;;28.35;14.15;;;8.50;99.90;;;;;;5027186;28;20048;-60
2022/03/17 06:25:27;;;;;;;22.23;13.05;;;8.50;99.90;;;;;;5027624;28;20033;-60
2022/03/17 06:27:53;;;;;;;20.25;13.13;;;8.50;99.90;;;;;;5030760;28;20045;-60
2022/03/17 06:30:22;;;;;;;25.98;14.32;;;8.50;99.90;;;;;;5027000;28;20040;-59
2022/03/17 06:32:47;;;;;;;20.50;12.38;;;8.50;99.90;;;;;;5026944;28;20033;-60
2022/03/17 06:35:17;;;;;;;19.73;11.70;;;8.50;99.90;;;;;;5020136;28;20034;-58
2022/03/17 06:37:44;;;;;;;20.92;12.75;;;8.50;99.90;;;;;;5018834;28;20049;-60
2022/03/17 06:40:10;;;;;;;20.52;11.35;;;8.50;99.90;;;;;;5028746;28;20049;-60
2022/03/17 06:42:36;;;;;;;17.52;10.23;;;8.60;99.90;;;;;;5028657;28;20092;-60
2022/03/17 06:45:02;;;;;;;20.15;10.73;;;8.60;99.90;;;;;;5017726;28;20042;-60
2022/03/17 06:47:28;;;;;;;18.90;10.15;;;8.60;99.90;;;;;;5025571;28;20045;-60
2022/03/17 06:49:53;;;;;;;17.42;10.02;;;8.60;99.90;;;;;;5029785;28;20583;-60
2022/03/17 06:52:20;;;;;;;19.27;9.77;;;8.60;99.90;;;;;;5026311;28;20399;-60
2022/03/17 06:54:46;;;;;;;20.25;9.93;;;8.60;99.90;;;;;;5003283;28;20045;-60
2022/03/17 06:57:17;;;;;;;18.73;8.88;;;8.60;99.90;;;;;;5013107;28;20759;-60
2022/03/17 06:59:43;;;;;;;;;;;8.60;99.90;;;;;;5034105;28;20552;-60
2022/03/17 07:02:08;;;;;;;13.70;7.60;;;8.50;99.90;;;;;;5029425;28;19917;-60
2022/03/17 07:04:34;;;;;;;19.90;8.57;;;8.50;99.90;;;;;;5028431;28;20064;-60
2022/03/17 07:06:59;;;;;;;12.70;6.60;;;8.50;99.90;;;;;;5028954;28;20046;-61
2022/03/17 07:09:25;;;;;;;14.82;7.15;;;8.60;99.90;;;;;;5023040;28;20033;-60
2022/03/17 07:11:50;;;;;;;13.90;6.68;;;8.50;99.90;;;;;;5027676;28;20044;-60
2022/03/17 07:14:16;;;;;;;14.30;6.90;;;8.50;99.90;;;;;;5029203;28;20033;-60
2022/03/17 07:16:41;;;;;;;13.60;5.68;;;8.60;99.90;;;;;;5016381;28;20026;-60
2022/03/17 07:19:07;;;;;;;11.60;5.10;;;8.60;99.90;;;;;;5016432;28;20047;-60
2022/03/17 07:21:33;;;;;;;13.25;5.45;;;8.60;99.90;;;;;;5025263;28;20069;-61
2022/03/17 07:23:59;;;;;;;11.35;5.20;;;8.70;99.90;;;;;;5025926;28;20041;-60
2022/03/17 07:26:26;;;;;;;9.05;4.32;;;8.70;99.90;;;;;;5032926;28;20033;-60
2022/03/17 07:28:54;;;;;;;13.73;4.75;;;8.70;99.90;;;;;;5029395;28;20048;-60
2022/03/17 07:31:20;;;;;;;10.93;4.20;;;8.60;99.90;;;;;;5011278;28;20085;-60
2022/03/17 07:33:48;;;;;;;11.48;5.15;;;8.60;99.90;;;;;;5030294;28;20599;-60
2022/03/17 07:36:13;;;;;;;12.00;4.55;;;8.60;99.90;;;;;;5033583;28;20080;-61
2022/03/17 07:38:39;;;;;;;17.00;5.70;;;8.70;99.90;;;;;;5028453;28;20124;-60
2022/03/17 07:41:04;;;;;;;13.25;5.18;;;8.70;99.90;;;;;;5029543;28;20033;-61
2022/03/17 07:43:30;;;;;;;19.90;5.10;;;8.70;99.90;;;;;;5021135;28;20135;-61
2022/03/17 07:45:55;;;;;;;13.95;4.68;;;8.60;99.90;;;;;;5027739;28;20041;-61
2022/03/17 07:48:21;;;;;;;13.93;3.95;;;8.60;99.90;;;;;;5028516;28;20037;-61
2022/03/17 07:50:47;;;;;;;10.65;3.80;;;8.50;99.90;;;;;;5029214;28;20173;-60
2022/03/17 07:53:12;;;;;;;14.77;3.67;;;8.50;99.90;;;;;;5019944;28;20045;-60
2022/03/17 07:55:38;;;;;;;9.38;3.28;;;8.50;99.90;;;;;;5027604;28;20443;-61
2022/03/17 07:58:04;;;;;;;9.63;3.45;;;8.50;99.90;;;;;;5023289;28;20077;-60
2022/03/17 08:00:30;;;;;;;15.30;3.17;;;8.50;99.90;;;;;;5024790;28;20084;-61
2022/03/17 08:02:57;;;;;;;15.85;3.20;;;8.60;99.90;;;;;;5027687;28;20056;-61
2022/03/17 08:05:23;;;;;;;8.90;2.63;;;8.60;99.90;;;;;;5028443;28;20052;-61
2022/03/17 08:07:48;;;;;;;14.30;3.08;;;8.50;99.90;;;;;;5027837;28;20045;-61
2022/03/17 08:10:15;;;;;;;11.98;2.78;;;8.50;99.90;;;;;;5028166;28;20033;-61
2022/03/17 08:12:42;;;;;;;11.27;2.55;;;8.50;99.90;;;;;;5024127;28;20128;-60
2022/03/17 08:15:07;;;;;;;10.25;2.25;;;8.50;99.90;;;;;;5007320;28;20108;-60
2022/03/17 08:17:34;;;;;;;14.98;2.80;;;8.50;99.90;;;;;;5028059;28;20112;-61
2022/03/17 08:19:59;;;;;;;8.50;1.92;;;8.50;99.90;;;;;;5028320;28;20123;-62
2022/03/17 08:22:25;;;;;;;7.47;2.00;;;8.50;99.90;;;;;;5032515;28;20064;-60
2022/03/17 08:24:51;;;;;;;9.38;2.30;;;8.50;99.90;;;;;;5028571;28;20041;-61
2022/03/17 08:27:17;;;;;;;5.13;1.50;;;8.50;99.90;;;;;;5028308;28;20095;-61
2022/03/17 08:29:43;;;;;;;8.23;2.20;;;8.50;99.90;;;;;;5028504;28;20680;-61
2022/03/17 08:32:08;;;;;;;11.38;2.13;;;8.50;99.90;;;;;;5020884;28;20030;-60
2022/03/17 08:34:35;;;;;;;9.32;2.00;;;8.50;99.90;;;;;;5020122;28;20037;-61
2022/03/17 08:37:00;;;;;;;13.20;2.50;;;8.40;99.90;;;;;;5028266;28;20107;-62
2022/03/17 08:39:27;;;;;;;9.63;2.50;;;8.50;99.90;;;;;;5027967;28;20454;-61
2022/03/17 08:41:53;;;;;;;16.92;2.75;;;8.40;99.90;;;;;;5024795;28;20035;-61
2022/03/17 08:44:19;;;;;;;11.43;2.40;;;8.40;99.90;;;;;;5027979;28;20029;-60
2022/03/17 08:49:29;;;;;;;14.07;2.90;;;8.30;99.90;;;;;;5018755;28;20045;-60
2022/03/17 08:51:56;;;;;;;8.80;2.13;;;8.30;99.90;;;;;;5018212;28;20038;-61
2022/03/17 08:54:27;;;;;;;14.63;2.90;;;8.30;99.90;;;;;;5027355;28;20107;-61
2022/03/17 08:57:01;;;;;;;14.95;2.80;;;8.30;99.90;;;;;;5027473;28;20048;-60
2022/03/17 08:59:32;;;;;;;13.27;2.20;;;8.40;99.90;;;;;;5007709;28;20518;-60
2022/03/17 09:02:02;;;;;;;6.65;1.83;;;8.40;99.90;;;;;;5024572;28;20049;-60
2022/03/17 09:04:28;;;;;;;12.77;2.45;;;8.40;99.90;;;;;;5016124;28;20038;-60
2022/03/17 09:06:59;;;;;;;12.25;2.03;;;8.40;99.90;;;;;;5023828;28;20069;-60
2022/03/17 09:09:29;;;;;;;9.57;1.98;;;8.40;99.90;;;;;;5030405;28;20065;-60
2022/03/17 09:11:55;;;;;;;16.17;2.03;;;8.40;99.90;;;;;;5031456;28;20037;-60
2022/03/17 09:14:21;;;;;;;18.60;2.30;;;8.40;99.90;;;;;;5025976;28;20037;-60
2022/03/17 09:16:47;;;;;;;16.67;2.50;;;8.40;99.90;;;;;;5029980;28;20660;-61
2022/03/17 09:19:13;;;;;;;15.95;2.28;;;8.40;99.90;;;;;;5030534;28;20099;-60
2022/03/17 09:21:39;;;;;;;9.10;2.13;;;8.40;99.90;;;;;;5029423;28;20038;-60
2022/03/17 09:24:05;;;;;;;13.02;2.00;;;8.50;99.90;;;;;;5024611;28;20719;-60
2022/03/17 09:26:31;;;;;;;14.20;2.13;;;8.60;99.90;;;;;;5030882;28;20033;-60
2022/03/17 09:28:58;;;;;;;21.70;3.72;;;8.70;99.90;;;;;;5030815;28;20132;-60
2022/03/17 09:31:24;;;;;;;14.65;2.88;;;8.90;99.90;;;;;;5023144;28;20029;-60
2022/03/17 09:33:50;;;;;;;8.55;1.95;;;9.10;99.90;;;;;;5027153;28;20168;-60
2022/03/17 09:36:18;;;;;;;9.05;2.15;;;9.10;99.90;;;;;;5025678;28;20048;-60
2022/03/17 09:39:39;;;;;;;13.05;2.42;;;9.10;99.90;;;;;;5021263;28;20066;-61
2022/03/17 09:41:33;;;;;;;16.67;2.47;;;9.20;99.90;;;;;;5030133;28;20537;-61
2022/03/17 09:43:59;;;;;;;8.10;2.08;;;9.10;99.90;;;;;;5030135;28;20038;-61
2022/03/17 09:46:26;;;;;;;10.85;1.80;;;9.00;99.90;;;;;;5030318;28;20424;-61
2022/03/17 09:48:54;;;;;;;8.25;1.75;;;9.00;99.90;;;;;;5013891;28;20117;-61
2022/03/17 09:51:23;;;;;;;8.90;1.73;;;9.00;99.90;;;;;;5025041;28;20033;-61
2022/03/17 09:53:53;;;;;;;11.80;2.13;;;9.00;99.90;;;;;;5030066;28;20038;-61
2022/03/17 09:56:20;;;;;;;10.60;1.70;;;9.00;99.90;;;;;;5020905;28;20037;-61
2022/03/17 09:58:47;;;;;;;13.07;2.90;;;9.00;99.90;;;;;;5030050;28;20068;-61
2022/03/17 10:01:15;;;;;;;13.70;2.22;;;9.10;99.90;;;;;;5030801;28;20045;-61
2022/03/17 10:03:41;;;;;;;7.90;1.92;;;9.10;99.90;;;;;;5030778;28;20123;-61
2022/03/17 10:06:09;;;;;;;11.55;2.20;;;9.10;99.90;;;;;;5031248;28;20587;-61
2022/03/17 10:08:38;;;;;;;9.13;2.08;;;9.10;99.90;;;;;;5030210;28;20037;-61
2022/03/17 10:11:04;;;;;;;8.85;2.00;;;9.20;99.90;;;;;;5027571;28;20404;-61
2022/03/17 10:13:31;;;;;;;13.20;2.47;;;9.10;99.90;;;;;;5018947;28;20034;-61
2022/03/17 10:16:15;;;;;;;10.75;2.05;;;9.20;99.90;;;;;;5033842;28;20087;-61
2022/03/17 10:18:40;;;;;;;10.05;2.00;;;9.20;99.90;;;;;;5027138;28;20102;-61
2022/03/17 10:21:08;;;;;;;15.38;2.25;;;9.20;99.90;;;;;;5012485;28;20128;-61
2022/03/17 10:23:42;;;;;;;7.80;1.70;;;9.20;99.90;;;;;;5012033;28;20063;-61
2022/03/17 10:26:08;;;;;;;9.98;2.20;;;9.30;99.90;;;;;;5031534;28;20037;-61
2022/03/17 10:28:33;;;;;;;10.10;1.70;;;9.40;99.90;;;;;;5022155;28;20048;-61
2022/03/17 10:31:07;;;;;;;10.38;2.00;;;9.40;99.90;;;;;;5024821;28;20029;-61
2022/03/17 10:33:33;;;;;;;9.40;2.95;;;9.50;99.90;;;;;;5026156;28;20498;-61
2022/03/17 10:36:21;;;;;;;11.27;2.33;;;9.60;99.90;;;;;;5018300;28;20651;-61
2022/03/17 10:38:49;;;;;;;10.68;1.95;;;9.60;99.90;;;;;;5025734;28;20125;-61
2022/03/17 10:41:16;;;;;;;12.20;2.15;;;9.70;99.90;;;;;;5027210;28;20131;-63
2022/03/17 10:43:43;;;;;;;15.20;2.25;;;9.80;99.90;;;;;;5029072;28;20116;-61
2022/03/17 10:46:18;;;;;;;13.95;2.30;;;9.90;99.90;;;;;;5032899;28;20029;-61
2022/03/17 10:49:07;;;;;;;10.60;2.25;;;10.10;99.90;;;;;;5023866;28;20045;-61
2022/03/17 10:51:41;;;;;;;9.20;1.88;;;10.30;99.90;;;;;;5026992;28;20052;-61
2022/03/17 10:54:20;;;;;;;5.50;1.80;;;10.30;99.90;;;;;;5029957;28;20041;-61
2022/03/17 10:57:04;;;;;;;11.80;1.73;;;10.30;99.90;;;;;;5021520;28;20061;-61
2022/03/17 10:59:38;;;;;;;7.15;1.60;;;10.50;99.90;;;;;;5026420;28;20638;-63
2022/03/17 11:02:08;;;;;;;8.77;1.63;;;10.60;99.90;;;;;;5027935;28;20561;-61
2022/03/17 11:04:38;;;;;;;5.93;1.73;;;10.50;99.90;;;;;;5033891;28;20041;-61
2022/03/17 11:07:06;;;;;;;6.05;1.88;;;10.70;99.90;;;;;;5019015;28;20049;-61
2022/03/17 11:09:35;;;;;;;9.40;2.33;;;10.80;99.90;;;;;;5024274;28;20817;-61
2022/03/17 11:12:01;;;;;;;7.15;1.92;;;10.90;99.90;;;;;;5023075;28;20127;-61
2022/03/17 11:14:27;;;;;;;11.07;1.88;;;11.00;99.90;;;;;;5025723;28;20056;-61
2022/03/17 11:16:56;;;;;;;6.72;2.00;;;11.10;99.90;;;;;;5026348;28;20034;-61
2022/03/17 11:19:23;;;;;;;11.05;1.92;;;11.00;99.90;;;;;;5015978;28;20110;-61
2022/03/17 11:22:04;;;;;;;11.38;1.85;;;11.00;99.90;;;;;;5024133;28;20037;-61
2022/03/17 11:24:30;;;;;;;8.00;1.50;;;10.80;99.90;;;;;;5027185;28;20038;-60
2022/03/17 11:27:10;;;;;;;8.70;1.85;;;10.70;99.90;;;;;;5029729;28;20056;-61
2022/03/17 11:29:44;;;;;;;10.82;1.90;;;10.80;99.90;;;;;;5035736;28;20036;-61
2022/03/17 11:32:29;;;;;;;10.43;2.28;;;11.20;99.90;;;;;;5028818;28;20056;-61
2022/03/17 11:35:17;;;;;;;12.88;2.30;;;11.10;99.90;;;;;;5028741;28;20754;-61
2022/03/17 11:37:43;;;;;;;11.00;3.05;;;11.10;99.90;;;;;;5026112;28;20041;-61
2022/03/17 11:40:13;;;;;;;12.25;2.00;;;11.20;99.90;;;;;;5028796;28;20047;-61
2022/03/17 11:42:47;;;;;;;10.05;2.15;;;11.40;99.90;;;;;;5028721;28;20539;-61
2022/03/17 11:45:13;;;;;;;11.13;1.88;;;11.60;99.90;;;;;;5024239;28;20108;-61
2022/03/17 11:47:43;;;;;;;10.18;2.33;;;11.50;99.90;;;;;;5027672;28;20129;-61
2022/03/17 11:50:40;;;;;;;12.98;2.40;;;11.60;99.90;;;;;;5028938;28;20033;-61
2022/03/17 11:53:12;;;;;;;8.88;2.67;;;11.50;99.90;;;;;;5020952;28;20041;-61
2022/03/17 11:55:46;;;;;;;9.63;2.33;;;11.50;99.90;;;;;;5025312;28;20044;-61
2022/03/17 11:58:29;;;;;;;8.77;1.92;;;11.60;99.90;;;;;;5027752;28;20091;-61
2022/03/17 12:01:05;;;;;;;8.27;1.73;;;11.50;99.90;;;;;;5022562;28;20046;-61
2022/03/17 12:03:43;;;;;;;11.95;2.15;;;11.50;99.90;;;;;;5027644;28;20810;-61
2022/03/17 12:06:15;;;;;;;9.30;2.10;;;11.60;99.90;;;;;;5021407;28;20113;-60
2022/03/17 12:08:49;;;;;;;9.85;2.50;;;11.40;99.90;;;;;;5003144;28;20188;-61
2022/03/17 12:11:16;;;;;;;11.95;1.92;;;11.10;99.90;;;;;;5025818;28;20087;-61
2022/03/17 12:13:43;;;;;;;12.65;2.30;;;10.90;99.90;;;;;;5027530;28;20037;-60
2022/03/17 12:16:12;;;;;;;8.48;2.17;;;10.90;99.90;;;;;;5023392;28;20175;-60
2022/03/17 12:19:00;;;;;;;8.45;2.00;;;10.90;99.90;;;;;;5026580;28;20065;-60
2022/03/17 12:22:04;;;;;;;13.05;2.50;;;11.00;99.90;;;;;;5025139;28;20392;-60
2022/03/17 12:24:48;;;;;;;12.50;2.67;;;11.10;99.90;;;;;;5021499;28;20038;-61
2022/03/17 12:27:27;;;;;;;10.90;2.00;;;11.50;99.90;;;;;;5026441;28;20565;-61
2022/03/17 12:30:00;;;;;;;8.35;2.42;;;11.70;99.90;;;;;;5016441;28;20116;-61
2022/03/17 12:32:27;;;;;;;8.95;2.30;;;11.70;99.90;;;;;;5027858;28;20094;-61
2022/03/17 12:34:55;;;;;;;8.70;2.33;;;11.60;99.90;;;;;;5029021;28;20128;-61
2022/03/17 12:37:23;;;;;;;8.00;2.08;;;11.70;99.90;;;;;;5027505;28;20048;-60
2022/03/17 12:39:52;;;;;;;6.78;1.95;;;11.60;99.90;;;;;;5028597;28;20045;-61
2022/03/17 12:42:29;;;;;;;11.48;2.20;;;11.60;99.90;;;;;;5006942;28;20033;-62
2022/03/17 12:45:02;;;;;;;8.23;2.25;;;11.50;99.90;;;;;;5023337;28;20242;-61
2022/03/17 12:47:29;;;;;;;8.85;2.22;;;11.80;99.90;;;;;;5031091;28;20029;-62
2022/03/17 12:49:57;;;;;;;12.77;3.00;;;12.10;99.90;;;;;;5027796;28;20036;-60
2022/03/17 12:52:28;;;;;;;7.53;2.53;;;12.10;99.90;;;;;;5023304;28;20037;-60
2022/03/17 12:55:03;;;;;;;13.15;2.30;;;12.30;99.90;;;;;;5031156;28;20041;-61
2022/03/17 12:57:31;;;;;;;9.02;2.28;;;12.00;99.90;;;;;;5027462;28;20044;-61
2022/03/17 12:59:57;;;;;;;7.03;1.92;;;12.10;99.90;;;;;;5028551;28;20091;-61
2022/03/17 13:02:24;;;;;;;5.10;1.88;;;12.00;99.90;;;;;;5031778;28;20056;-60
2022/03/17 13:04:53;;;;;;;9.68;2.53;;;11.90;99.90;;;;;;5031990;28;20056;-61
2022/03/17 13:07:20;;;;;;;12.73;2.58;;;11.90;99.90;;;;;;5034960;28;20708;-62
2022/03/17 13:09:47;;;;;;;9.63;2.40;;;11.90;99.90;;;;;;5032898;28;20091;-60
2022/03/17 13:15:11;;;;;;;16.58;4.78;;;11.70;99.90;;;;;;5031479;28;20120;-61
2022/03/17 13:17:44;;;;;;;12.68;2.03;;;11.80;99.90;;;;;;5018792;28;20546;-61
2022/03/17 13:20:23;;;;;;;7.65;2.33;;;11.80;99.90;;;;;;5029045;28;20652;-61
2022/03/17 13:23:04;;;;;;;7.55;2.92;;;11.90;99.90;;;;;;5028267;28;20048;-61
2022/03/17 13:25:30;;;;;;;;;;;11.90;99.90;;;;;;5014763;28;20545;-61
2022/03/17 13:27:59;;;;;;;16.15;2.72;;;11.90;99.90;;;;;;5030854;28;20071;-61
2022/03/17 13:30:25;;;;;;;9.98;2.30;;;12.00;99.70;;;;;;5031200;28;20065;-61
2022/03/17 13:33:04;;;;;;;11.23;2.75;;;12.20;99.90;;;;;;5022488;28;20116;-61
2022/03/17 13:35:33;;;;;;;10.10;2.22;;;12.10;99.50;;;;;;5030839;28;20038;-60
2022/03/17 13:38:19;;;;;;;13.35;2.50;;;12.00;99.90;;;;;;5031050;28;20041;-60
2022/03/17 13:40:46;;;;;;;10.90;2.55;;;12.10;99.90;;;;;;5026983;28;20039;-60
2022/03/17 13:43:13;;;;;;;8.65;2.42;;;12.00;99.90;;;;;;5030804;28;20104;-62
2022/03/17 13:45:41;;;;;;;10.70;2.40;;;12.10;99.90;;;;;;5030668;28;20468;-61
2022/03/17 13:48:09;;;;;;;7.45;2.78;;;12.00;99.90;;;;;;5025057;28;20594;-61
2022/03/17 13:50:50;;;;;;;6.40;1.83;;;12.00;99.90;;;;;;5027791;28;20108;-61
2022/03/17 13:53:17;;;;;;;8.68;2.20;;;11.90;99.80;;;;;;5006066;28;20480;-61
2022/03/17 13:55:58;;;;;;;12.02;2.13;;;12.00;99.90;;;;;;5030860;28;20068;-61
2022/03/17 13:58:29;;;;;;;7.15;2.13;;;12.00;99.90;;;;;;5024737;28;20068;-61
2022/03/17 14:01:05;;;;;;;5.77;1.80;;;12.00;99.90;;;;;;5030025;28;20503;-61
2022/03/17 14:03:32;;;;;;;9.90;2.28;;;12.00;99.80;;;;;;5030415;28;20041;-61
2022/03/17 14:06:15;;;;;;;10.38;2.13;;;11.90;99.90;;;;;;5004131;28;20514;-61
2022/03/17 14:08:45;;;;;;;9.70;2.20;;;11.90;99.90;;;;;;5027213;28;20044;-60
2022/03/17 14:11:16;;;;;;;13.35;2.20;;;11.80;99.90;;;;;;5030151;28;20712;-60
2022/03/17 14:13:44;;;;;;;11.85;1.90;;;11.80;99.90;;;;;;5029249;28;20033;-61
2022/03/17 14:16:10;;;;;;;8.63;1.88;;;11.80;99.90;;;;;;5031587;28;20107;-59